Andrea — WDF2417 — position and weather

sailwx.info

Track history (hours):
 
Tides and Currents Weather Stations Pressure Air Temp Water Temp Dewpoint Dewpoint Depression Visibility Wind Speed Wind Dir Waves Ship Positions

Andrea

Owner: Enterprise Marine Services, LLC, San Antonio, TX. More information available from US FCC via Universal Licensing System and Coast Guard Vessel Documentation Center.

Last reported at 2017-Dec-11 15:43 UTC. Time now 2017-Dec-11 19:08 UTC.
Position N 39°47' W 074°03'.

; draft 4 m.

Type: Towing. MMSI: 367003310.

Date/timePositionNaut miles runAvg speedWind from/ knotsBaromVisibWave heightAir tempDewpointWater temp
2017-Dec-11 15:43N 39°47' W 074°03'2 7.9
2017-Dec-11 15:29N 39°45' W 074°03'4 7.9
2017-Dec-11 15:00N 39°42' W 074°05'4 8.1
2017-Dec-11 14:30N 39°38' W 074°07'61 6.1
2017-Dec-11 04:27N 39°01' W 075°10'3 6.1
2017-Dec-11 04:00N 39°03' W 075°10'5 7.0
2017-Dec-11 03:19N 39°07' W 075°13'2 7.6
2017-Dec-11 03:00N 39°09' W 075°15'4 7.8
2017-Dec-11 02:30N 39°13' W 075°17'4 8.2
2017-Dec-11 02:00N 39°16' W 075°21'4 8.4
2017-Dec-11 01:30N 39°19' W 075°24'4 8.7
2017-Dec-11 01:00N 39°22' W 075°28'4 8.6
2017-Dec-11 00:30N 39°26' W 075°32'4 7.7
2017-Dec-11 00:00N 39°29' W 075°34'4 7.5
2017-Dec-10 23:30N 39°33' W 075°33'3 6.7
2017-Dec-10 23:00N 39°36' W 075°34'3 5.4
2017-Dec-10 22:30N 39°38' W 075°34'2 3.4
2017-Dec-10 22:01N 39°40' W 075°32'3 5.2
2017-Dec-10 21:30N 39°42' W 075°31'1 0.9
2017-Dec-10 20:55N 39°43' W 075°31'0 0.0
2017-Dec-10 20:28N 39°43' W 075°31'0 0.0
2017-Dec-10 19:58N 39°43' W 075°31'0 0.0
2017-Dec-10 19:28N 39°43' W 075°31'0 0.0
2017-Dec-10 18:58N 39°43' W 075°31'0 0.0
2017-Dec-10 18:28N 39°43' W 075°31'0 0.0
2017-Dec-10 17:58N 39°43' W 075°31'0 0.0
2017-Dec-10 17:28N 39°43' W 075°31'0 0.0
2017-Dec-10 16:58N 39°43' W 075°31'0 0.0
2017-Dec-10 16:28N 39°43' W 075°31'0 0.0
2017-Dec-10 15:58N 39°43' W 075°31'0 0.0
2017-Dec-10 15:28N 39°43' W 075°31'0 0.0
2017-Dec-10 14:58N 39°43' W 075°31'0 0.0
2017-Dec-10 14:28N 39°43' W 075°31'0 0.0
2017-Dec-10 13:58N 39°43' W 075°31'0 0.0
2017-Dec-10 13:28N 39°43' W 075°31'0 0.0
2017-Dec-10 12:58N 39°43' W 075°31'0 0.0
2017-Dec-10 12:28N 39°43' W 075°31'0 0.0
2017-Dec-10 11:58N 39°43' W 075°31'0 0.0
2017-Dec-10 11:25N 39°43' W 075°31'0 0.0
2017-Dec-10 10:58N 39°43' W 075°31'0 0.0
2017-Dec-10 10:28N 39°43' W 075°31'0 0.0
2017-Dec-10 09:58N 39°43' W 075°31'0 0.0
2017-Dec-10 09:25N 39°43' W 075°31'0 0.0
2017-Dec-10 08:58N 39°43' W 075°31'0 0.0
2017-Dec-10 08:28N 39°43' W 075°31'0 0.0
2017-Dec-10 07:58N 39°43' W 075°31'0 0.0
2017-Dec-10 07:28N 39°43' W 075°31'0 0.0
2017-Dec-10 06:58N 39°43' W 075°31'0 0.0
2017-Dec-10 06:28N 39°43' W 075°31'0 0.0
2017-Dec-10 05:58N 39°43' W 075°31'0 0.0
2017-Dec-10 05:28N 39°43' W 075°31'0 0.0
2017-Dec-10 04:58N 39°43' W 075°31'0 0.0
2017-Dec-10 04:28N 39°43' W 075°31'0 0.0
2017-Dec-10 03:58N 39°43' W 075°31'0 0.0
2017-Dec-10 03:28N 39°43' W 075°31'0 0.0
2017-Dec-10 02:58N 39°43' W 075°31'0 0.0
2017-Dec-10 02:28N 39°43' W 075°31'0 0.0
2017-Dec-10 01:58N 39°43' W 075°31'0 0.0
2017-Dec-10 01:28N 39°43' W 075°31'0 0.0
2017-Dec-10 00:58N 39°43' W 075°31'0 0.0
2017-Dec-10 00:28N 39°43' W 075°31'0 0.0
2017-Dec-09 23:58N 39°43' W 075°31'0 0.0
2017-Dec-09 23:28N 39°43' W 075°31'0 0.0
2017-Dec-09 22:58N 39°43' W 075°31'0 0.0
2017-Dec-09 22:28N 39°43' W 075°31'0 0.0
2017-Dec-09 21:58N 39°43' W 075°31'0 0.0
2017-Dec-09 21:28N 39°43' W 075°31'0 0.0
2017-Dec-09 20:58N 39°43' W 075°31'0 0.0
2017-Dec-09 20:25N 39°43' W 075°31'0 0.0
2017-Dec-09 19:58N 39°43' W 075°31'0 0.0
2017-Dec-09 19:28N 39°43' W 075°31'0 0.0
2017-Dec-09 18:58N 39°43' W 075°31'0 0.0
2017-Dec-09 18:28N 39°43' W 075°31'0 0.0
2017-Dec-09 17:58N 39°43' W 075°31'0 0.0
2017-Dec-09 17:28N 39°43' W 075°31'0 0.0
2017-Dec-09 16:55N 39°43' W 075°31'0 0.0
2017-Dec-09 16:28N 39°43' W 075°31'0 0.0
2017-Dec-09 15:55N 39°43' W 075°31'0 0.0
2017-Dec-09 15:28N 39°43' W 075°31'0 0.0
2017-Dec-09 14:55N 39°43' W 075°31'0 0.0
2017-Dec-09 14:28N 39°43' W 075°31'0 0.0
2017-Dec-09 13:58N 39°43' W 075°31'0 0.0
2017-Dec-09 13:28N 39°43' W 075°31'0 0.0
2017-Dec-09 12:58N 39°43' W 075°31'0 0.0
2017-Dec-09 12:28N 39°43' W 075°31'0 0.0
2017-Dec-09 11:55N 39°43' W 075°31'0 0.0
2017-Dec-09 11:28N 39°43' W 075°31'0 0.0
2017-Dec-09 10:58N 39°43' W 075°31'0 0.0
2017-Dec-09 10:28N 39°43' W 075°31'0 0.0
2017-Dec-09 09:58N 39°43' W 075°31'0 0.0
2017-Dec-09 09:28N 39°43' W 075°31'0 0.0
2017-Dec-09 08:55N 39°43' W 075°31'0 0.0
2017-Dec-09 08:28N 39°43' W 075°31'0 0.0
2017-Dec-09 07:58N 39°43' W 075°31'0 0.0
2017-Dec-09 07:28N 39°43' W 075°31'0 0.0
2017-Dec-09 06:58N 39°43' W 075°31'0 0.0
2017-Dec-09 06:30N 39°43' W 075°31'0 0.0
2017-Dec-09 06:00N 39°43' W 075°31'0 0.8
2017-Dec-09 05:31N 39°42' W 075°30'1 1.6
2017-Dec-09 05:00N 39°43' W 075°31'0 0.0
2017-Dec-09 04:30N 39°43' W 075°31'0 0.0
2017-Dec-09 04:01N 39°43' W 075°31'0 0.0
2017-Dec-09 03:30N 39°43' W 075°31'0 0.0
2017-Dec-09 03:00N 39°43' W 075°31'0 0.0
2017-Dec-09 02:30N 39°43' W 075°31'0 0.0
2017-Dec-09 02:00N 39°43' W 075°31'0 0.0
2017-Dec-09 01:30N 39°43' W 075°31'0 0.0
2017-Dec-09 01:00N 39°43' W 075°31'0 0.0
2017-Dec-09 00:30N 39°43' W 075°31'0 0.0
2017-Dec-09 00:00N 39°43' W 075°31'0 0.0
2017-Dec-08 23:30N 39°43' W 075°31'0 0.0
2017-Dec-08 23:00N 39°43' W 075°31'0 0.0
2017-Dec-08 22:30N 39°43' W 075°31'0 0.0
2017-Dec-08 22:00N 39°43' W 075°31'0 0.0
2017-Dec-08 21:30N 39°43' W 075°31'0 0.0
2017-Dec-08 21:00N 39°43' W 075°31'0 0.0
2017-Dec-08 20:30N 39°43' W 075°31'0 0.0
2017-Dec-08 20:00N 39°43' W 075°31'0 0.0
2017-Dec-08 19:30N 39°43' W 075°31'0 0.1
2017-Dec-08 19:00N 39°43' W 075°31'2 3.5
2017-Dec-08 18:30N 39°41' W 075°31'4 8.8
2017-Dec-08 18:00N 39°38' W 075°35'4 8.2
2017-Dec-08 17:30N 39°34' W 075°33'5 9.1
2017-Dec-08 17:00N 39°29' W 075°34'5 9.1
2017-Dec-08 16:30N 39°25' W 075°31'4 8.8
2017-Dec-08 16:00N 39°22' W 075°27'4 8.6
2017-Dec-08 15:30N 39°19' W 075°24'4 8.4
2017-Dec-08 15:00N 39°16' W 075°20'4 7.9
2017-Dec-08 14:30N 39°12' W 075°17'4 8.2
2017-Dec-08 14:00N 39°09' W 075°14'4 8.1
2017-Dec-08 13:30N 39°06' W 075°11'57 4.3
2017-Dec-08 00:10N 39°35' W 074°09'1 6.7
2017-Dec-07 23:57N 39°37' W 074°08'3 6.7
2017-Dec-07 23:27N 39°40' W 074°06'3 6.6
2017-Dec-07 23:00N 39°42' W 074°04'3 6.4
2017-Dec-07 22:30N 39°45' W 074°03'3 6.4
2017-Dec-07 22:00N 39°48' W 074°02'42 6.2
2017-Dec-07 15:09N 40°31' W 073°59'1 3.4
2017-Dec-07 14:57N 40°31' W 073°60'4 5.3
2017-Dec-07 14:12N 40°34' W 074°02'1 6.0
2017-Dec-07 14:00N 40°36' W 074°03'2 4.2
2017-Dec-07 13:30N 40°38' W 074°03'3 5.2
2017-Dec-07 13:00N 40°40' W 074°03'1 1.0
2017-Dec-07 12:30N 40°41' W 074°03'0 0.0
2017-Dec-07 12:00N 40°41' W 074°03'0 0.1
2017-Dec-07 11:30N 40°41' W 074°03'0 0.0
2017-Dec-07 11:00N 40°41' W 074°03'0 0.0
2017-Dec-07 10:30N 40°41' W 074°03'0 0.0
2017-Dec-07 10:00N 40°41' W 074°03'0 0.0
2017-Dec-07 09:30N 40°41' W 074°03'0 0.0
2017-Dec-07 09:00N 40°41' W 074°03'0 0.0
2017-Dec-07 08:30N 40°41' W 074°03'0 0.0
2017-Dec-07 08:00N 40°41' W 074°03'0 0.0
2017-Dec-07 07:30N 40°41' W 074°03'0 0.0
2017-Dec-07 07:00N 40°41' W 074°03'0 0.0
2017-Dec-07 06:30N 40°41' W 074°03'0 0.1
2017-Dec-07 06:00N 40°41' W 074°03'0 0.1
2017-Dec-07 05:30N 40°41' W 074°03'0 0.0
2017-Dec-07 05:00N 40°41' W 074°03'0 0.0
2017-Dec-07 04:30N 40°41' W 074°03'0 0.1
2017-Dec-07 04:00N 40°41' W 074°03'2 4.4
2017-Dec-07 03:30N 40°40' W 074°00'0 0.1
2017-Dec-07 03:00N 40°40' W 074°00'0 0.0
2017-Dec-07 02:30N 40°40' W 074°00'0 0.0
2017-Dec-07 02:00N 40°40' W 074°00'0 0.0
2017-Dec-07 01:30N 40°40' W 074°00'0 0.0
2017-Dec-07 01:00N 40°40' W 074°00'0 0.0
2017-Dec-07 00:30N 40°40' W 074°00'0 0.0
2017-Dec-07 00:00N 40°40' W 074°00'0 0.0
2017-Dec-06 23:30N 40°40' W 074°00'0 0.0
2017-Dec-06 23:00N 40°40' W 074°00'0 0.0
2017-Dec-06 22:30N 40°40' W 074°00'0 0.0
2017-Dec-06 22:00N 40°40' W 074°00'0 0.5
2017-Dec-06 21:30N 40°40' W 074°00'2 4.0
2017-Dec-06 21:00N 40°41' W 074°03'  
2017-Dec-04 10:30N 40°41' W 074°03'0 0.1
2017-Dec-04 10:00N 40°41' W 074°03'0 0.0
2017-Dec-04 09:30N 40°41' W 074°03'0 0.1
2017-Dec-04 09:00N 40°41' W 074°03'0 0.0
2017-Dec-04 08:30N 40°41' W 074°03'0 0.0
2017-Dec-04 08:00N 40°41' W 074°03'0 0.0
2017-Dec-04 07:30N 40°41' W 074°03'0 0.0
2017-Dec-04 07:00N 40°41' W 074°03'0 0.0
2017-Dec-04 06:30N 40°41' W 074°03'0 0.0
2017-Dec-04 06:00N 40°41' W 074°03'0 0.0
2017-Dec-04 05:30N 40°41' W 074°03'0 0.0
2017-Dec-04 05:00N 40°41' W 074°03'0 0.0
2017-Dec-04 04:30N 40°41' W 074°03'0 0.0
2017-Dec-04 04:00N 40°41' W 074°03'0 0.0
2017-Dec-04 03:30N 40°41' W 074°03'1 2.8
2017-Dec-04 03:00N 40°40' W 074°01'1 1.8
2017-Dec-04 02:30N 40°40' W 074°00'0 0.0
2017-Dec-04 02:00N 40°40' W 074°00'0 0.0
2017-Dec-04 01:30N 40°40' W 074°00'0 0.0
2017-Dec-04 01:00N 40°40' W 074°00'0 0.0
2017-Dec-04 00:30N 40°40' W 074°00'0 0.0
2017-Dec-04 00:00N 40°40' W 074°00'0 0.0
2017-Dec-03 23:30N 40°40' W 074°00'0 0.0
2017-Dec-03 23:00N 40°40' W 074°00'0 0.0
2017-Dec-03 22:30N 40°40' W 074°00'0 0.0
2017-Dec-03 22:00N 40°40' W 074°00'0 0.0
2017-Dec-03 21:30N 40°40' W 074°00'0 0.0
2017-Dec-03 21:00N 40°40' W 074°00'0 0.0
2017-Dec-03 20:30N 40°40' W 074°00'0 0.0
2017-Dec-03 20:00N 40°40' W 074°00'0 0.0
2017-Dec-03 19:30N 40°40' W 074°00'0 0.0
2017-Dec-03 19:00N 40°40' W 074°00'1 1.5
2017-Dec-03 18:31N 40°40' W 074°01'2 3.3
2017-Dec-03 18:00N 40°41' W 074°03'2 4.6
2017-Dec-03 17:30N 40°40' W 074°00'0 0.0
2017-Dec-03 17:00N 40°40' W 074°00'0 0.0
2017-Dec-03 16:30N 40°40' W 074°00'0 0.0
2017-Dec-03 16:00N 40°40' W 074°00'0 0.0
2017-Dec-03 15:30N 40°40' W 074°00'0 0.0
2017-Dec-03 15:00N 40°40' W 074°00'0 0.0
2017-Dec-03 14:30N 40°40' W 074°00'0 0.0
2017-Dec-03 14:00N 40°40' W 074°00'0 0.0
2017-Dec-03 13:30N 40°40' W 074°00'0 0.1
2017-Dec-03 13:01N 40°40' W 074°00'0 0.1
2017-Dec-03 12:30N 40°40' W 074°00'1 2.5
2017-Dec-03 12:00N 40°41' W 074°01'3 5.7
2017-Dec-03 11:30N 40°43' W 073°59'3 5.9
2017-Dec-03 11:00N 40°45' W 073°57'2 3.7
2017-Dec-03 10:29N 40°47' W 073°56'2 4.5
2017-Dec-03 10:00N 40°48' W 073°53'5 6.8
2017-Dec-03 09:19N 40°48' W 073°47'3 7.6
2017-Dec-03 08:58N 40°51' W 073°46'1 0.0
2017-Dec-02 08:17N 40°50' W 073°46'2 6.6
2017-Dec-02 07:58N 40°48' W 073°47'4 7.6
2017-Dec-02 07:28N 40°48' W 073°52'3 6.1
2017-Dec-02 06:59N 40°47' W 073°56'3 5.5
2017-Dec-02 06:30N 40°45' W 073°58'2 4.8
2017-Dec-02 06:00N 40°42' W 073°59'3 5.4
2017-Dec-02 05:30N 40°41' W 074°02'1 2.1
2017-Dec-02 05:00N 40°40' W 074°02'0 0.1
2017-Dec-02 04:30N 40°40' W 074°02'1 1.5
2017-Dec-02 04:00N 40°39' W 074°03'2 4.3
2017-Dec-02 03:30N 40°39' W 074°06'2 4.4
2017-Dec-02 03:00N 40°38' W 074°09'3 5.1
2017-Dec-02 02:30N 40°41' W 074°08'2 3.7
2017-Dec-02 01:59N 40°43' W 074°07'0 0.0
2017-Dec-02 01:29N 40°43' W 074°07'0 0.0
2017-Dec-02 00:58N 40°43' W 074°07'0 0.0
2017-Dec-02 00:30N 40°43' W 074°07'0 0.0
2017-Dec-02 00:00N 40°43' W 074°07'0 0.0
2017-Dec-01 23:29N 40°43' W 074°07'0 0.0
2017-Dec-01 23:00N 40°43' W 074°07'0 0.0
2017-Dec-01 22:30N 40°43' W 074°07'0 0.0
2017-Dec-01 22:00N 40°43' W 074°07'0 0.0
2017-Dec-01 21:28N 40°43' W 074°07'0 0.0
2017-Dec-01 20:59N 40°43' W 074°07'0 0.0
2017-Dec-01 20:29N 40°43' W 074°07'0 0.0
2017-Dec-01 20:00N 40°43' W 074°07'0 0.0
2017-Dec-01 19:30N 40°43' W 074°07'0 0.0
2017-Dec-01 19:00N 40°43' W 074°07'0 0.0
2017-Dec-01 18:29N 40°43' W 074°07'0 0.0
2017-Dec-01 18:00N 40°43' W 074°07'0 0.0
2017-Dec-01 17:30N 40°43' W 074°07'0 0.0
2017-Dec-01 17:00N 40°43' W 074°07'0 0.0
2017-Dec-01 16:30N 40°43' W 074°07'0 0.0
2017-Dec-01 16:00N 40°43' W 074°07'  
Track history (hours):
 
Tides and Currents Weather Stations Pressure Air Temp Water Temp Dewpoint Dewpoint Depression Visibility Wind Speed Wind Dir Waves Ship Positions

Andrea

Owner: Enterprise Marine Services, LLC, San Antonio, TX. More information available from US FCC via Universal Licensing System and Coast Guard Vessel Documentation Center.

Last reported at 2017-Dec-11 15:43 UTC. Time now 2017-Dec-11 19:08 UTC.
Position N 39°47' W 074°03'.

; draft 4 m.

Type: Towing. MMSI: 367003310.

Date/timePositionNaut miles runAvg speedWind from/ knotsBaromVisibWave heightAir tempDewpointWater temp
2017-Dec-11 15:43N 39°47' W 074°03'2 7.9
2017-Dec-11 15:29N 39°45' W 074°03'4 7.9
2017-Dec-11 15:00N 39°42' W 074°05'4 8.1
2017-Dec-11 14:30N 39°38' W 074°07'61 6.1
2017-Dec-11 04:27N 39°01' W 075°10'3 6.1
2017-Dec-11 04:00N 39°03' W 075°10'5 7.0
2017-Dec-11 03:19N 39°07' W 075°13'2 7.6
2017-Dec-11 03:00N 39°09' W 075°15'4 7.8
2017-Dec-11 02:30N 39°13' W 075°17'4 8.2
2017-Dec-11 02:00N 39°16' W 075°21'4 8.4
2017-Dec-11 01:30N 39°19' W 075°24'4 8.7
2017-Dec-11 01:00N 39°22' W 075°28'4 8.6
2017-Dec-11 00:30N 39°26' W 075°32'4 7.7
2017-Dec-11 00:00N 39°29' W 075°34'4 7.5
2017-Dec-10 23:30N 39°33' W 075°33'3 6.7
2017-Dec-10 23:00N 39°36' W 075°34'3 5.4
2017-Dec-10 22:30N 39°38' W 075°34'2 3.4
2017-Dec-10 22:01N 39°40' W 075°32'3 5.2
2017-Dec-10 21:30N 39°42' W 075°31'1 0.9
2017-Dec-10 20:55N 39°43' W 075°31'0 0.0
2017-Dec-10 20:28N 39°43' W 075°31'0 0.0
2017-Dec-10 19:58N 39°43' W 075°31'0 0.0
2017-Dec-10 19:28N 39°43' W 075°31'0 0.0
2017-Dec-10 18:58N 39°43' W 075°31'0 0.0
2017-Dec-10 18:28N 39°43' W 075°31'0 0.0
2017-Dec-10 17:58N 39°43' W 075°31'0 0.0
2017-Dec-10 17:28N 39°43' W 075°31'0 0.0
2017-Dec-10 16:58N 39°43' W 075°31'0 0.0
2017-Dec-10 16:28N 39°43' W 075°31'0 0.0
2017-Dec-10 15:58N 39°43' W 075°31'0 0.0
2017-Dec-10 15:28N 39°43' W 075°31'0 0.0
2017-Dec-10 14:58N 39°43' W 075°31'0 0.0
2017-Dec-10 14:28N 39°43' W 075°31'0 0.0
2017-Dec-10 13:58N 39°43' W 075°31'0 0.0
2017-Dec-10 13:28N 39°43' W 075°31'0 0.0
2017-Dec-10 12:58N 39°43' W 075°31'0 0.0
2017-Dec-10 12:28N 39°43' W 075°31'0 0.0
2017-Dec-10 11:58N 39°43' W 075°31'0 0.0
2017-Dec-10 11:25N 39°43' W 075°31'0 0.0
2017-Dec-10 10:58N 39°43' W 075°31'0 0.0
2017-Dec-10 10:28N 39°43' W 075°31'0 0.0
2017-Dec-10 09:58N 39°43' W 075°31'0 0.0
2017-Dec-10 09:25N 39°43' W 075°31'0 0.0
2017-Dec-10 08:58N 39°43' W 075°31'0 0.0
2017-Dec-10 08:28N 39°43' W 075°31'0 0.0
2017-Dec-10 07:58N 39°43' W 075°31'0 0.0
2017-Dec-10 07:28N 39°43' W 075°31'0 0.0
2017-Dec-10 06:58N 39°43' W 075°31'0 0.0
2017-Dec-10 06:28N 39°43' W 075°31'0 0.0
2017-Dec-10 05:58N 39°43' W 075°31'0 0.0
2017-Dec-10 05:28N 39°43' W 075°31'0 0.0
2017-Dec-10 04:58N 39°43' W 075°31'0 0.0
2017-Dec-10 04:28N 39°43' W 075°31'0 0.0
2017-Dec-10 03:58N 39°43' W 075°31'0 0.0
2017-Dec-10 03:28N 39°43' W 075°31'0 0.0
2017-Dec-10 02:58N 39°43' W 075°31'0 0.0
2017-Dec-10 02:28N 39°43' W 075°31'0 0.0
2017-Dec-10 01:58N 39°43' W 075°31'0 0.0
2017-Dec-10 01:28N 39°43' W 075°31'0 0.0
2017-Dec-10 00:58N 39°43' W 075°31'0 0.0
2017-Dec-10 00:28N 39°43' W 075°31'0 0.0
2017-Dec-09 23:58N 39°43' W 075°31'0 0.0
2017-Dec-09 23:28N 39°43' W 075°31'0 0.0
2017-Dec-09 22:58N 39°43' W 075°31'0 0.0
2017-Dec-09 22:28N 39°43' W 075°31'0 0.0
2017-Dec-09 21:58N 39°43' W 075°31'0 0.0
2017-Dec-09 21:28N 39°43' W 075°31'0 0.0
2017-Dec-09 20:58N 39°43' W 075°31'0 0.0
2017-Dec-09 20:25N 39°43' W 075°31'0 0.0
2017-Dec-09 19:58N 39°43' W 075°31'0 0.0
2017-Dec-09 19:28N 39°43' W 075°31'0 0.0
2017-Dec-09 18:58N 39°43' W 075°31'0 0.0
2017-Dec-09 18:28N 39°43' W 075°31'0 0.0
2017-Dec-09 17:58N 39°43' W 075°31'0 0.0
2017-Dec-09 17:28N 39°43' W 075°31'0 0.0
2017-Dec-09 16:55N 39°43' W 075°31'0 0.0
2017-Dec-09 16:28N 39°43' W 075°31'0 0.0
2017-Dec-09 15:55N 39°43' W 075°31'0 0.0
2017-Dec-09 15:28N 39°43' W 075°31'0 0.0
2017-Dec-09 14:55N 39°43' W 075°31'0 0.0
2017-Dec-09 14:28N 39°43' W 075°31'0 0.0
2017-Dec-09 13:58N 39°43' W 075°31'0 0.0
2017-Dec-09 13:28N 39°43' W 075°31'0 0.0
2017-Dec-09 12:58N 39°43' W 075°31'0 0.0
2017-Dec-09 12:28N 39°43' W 075°31'0 0.0
2017-Dec-09 11:55N 39°43' W 075°31'0 0.0
2017-Dec-09 11:28N 39°43' W 075°31'0 0.0
2017-Dec-09 10:58N 39°43' W 075°31'0 0.0
2017-Dec-09 10:28N 39°43' W 075°31'0 0.0
2017-Dec-09 09:58N 39°43' W 075°31'0 0.0
2017-Dec-09 09:28N 39°43' W 075°31'0 0.0
2017-Dec-09 08:55N 39°43' W 075°31'0 0.0
2017-Dec-09 08:28N 39°43' W 075°31'0 0.0
2017-Dec-09 07:58N 39°43' W 075°31'0 0.0
2017-Dec-09 07:28N 39°43' W 075°31'0 0.0
2017-Dec-09 06:58N 39°43' W 075°31'0 0.0
2017-Dec-09 06:30N 39°43' W 075°31'0 0.0
2017-Dec-09 06:00N 39°43' W 075°31'0 0.8
2017-Dec-09 05:31N 39°42' W 075°30'1 1.6
2017-Dec-09 05:00N 39°43' W 075°31'0 0.0
2017-Dec-09 04:30N 39°43' W 075°31'0 0.0
2017-Dec-09 04:01N 39°43' W 075°31'0 0.0
2017-Dec-09 03:30N 39°43' W 075°31'0 0.0
2017-Dec-09 03:00N 39°43' W 075°31'0 0.0
2017-Dec-09 02:30N 39°43' W 075°31'0 0.0
2017-Dec-09 02:00N 39°43' W 075°31'0 0.0
2017-Dec-09 01:30N 39°43' W 075°31'0 0.0
2017-Dec-09 01:00N 39°43' W 075°31'0 0.0
2017-Dec-09 00:30N 39°43' W 075°31'0 0.0
2017-Dec-09 00:00N 39°43' W 075°31'0 0.0
2017-Dec-08 23:30N 39°43' W 075°31'0 0.0
2017-Dec-08 23:00N 39°43' W 075°31'0 0.0
2017-Dec-08 22:30N 39°43' W 075°31'0 0.0
2017-Dec-08 22:00N 39°43' W 075°31'0 0.0
2017-Dec-08 21:30N 39°43' W 075°31'0 0.0
2017-Dec-08 21:00N 39°43' W 075°31'0 0.0
2017-Dec-08 20:30N 39°43' W 075°31'0 0.0
2017-Dec-08 20:00N 39°43' W 075°31'0 0.0
2017-Dec-08 19:30N 39°43' W 075°31'0 0.1
2017-Dec-08 19:00N 39°43' W 075°31'2 3.5
2017-Dec-08 18:30N 39°41' W 075°31'4 8.8
2017-Dec-08 18:00N 39°38' W 075°35'4 8.2
2017-Dec-08 17:30N 39°34' W 075°33'5 9.1
2017-Dec-08 17:00N 39°29' W 075°34'5 9.1
2017-Dec-08 16:30N 39°25' W 075°31'4 8.8
2017-Dec-08 16:00N 39°22' W 075°27'4 8.6
2017-Dec-08 15:30N 39°19' W 075°24'4 8.4
2017-Dec-08 15:00N 39°16' W 075°20'4 7.9
2017-Dec-08 14:30N 39°12' W 075°17'4 8.2
2017-Dec-08 14:00N 39°09' W 075°14'4 8.1
2017-Dec-08 13:30N 39°06' W 075°11'57 4.3
2017-Dec-08 00:10N 39°35' W 074°09'1 6.7
2017-Dec-07 23:57N 39°37' W 074°08'3 6.7
2017-Dec-07 23:27N 39°40' W 074°06'3 6.6
2017-Dec-07 23:00N 39°42' W 074°04'3 6.4
2017-Dec-07 22:30N 39°45' W 074°03'3 6.4
2017-Dec-07 22:00N 39°48' W 074°02'42 6.2
2017-Dec-07 15:09N 40°31' W 073°59'1 3.4
2017-Dec-07 14:57N 40°31' W 073°60'4 5.3
2017-Dec-07 14:12N 40°34' W 074°02'1 6.0
2017-Dec-07 14:00N 40°36' W 074°03'2 4.2
2017-Dec-07 13:30N 40°38' W 074°03'3 5.2
2017-Dec-07 13:00N 40°40' W 074°03'1 1.0
2017-Dec-07 12:30N 40°41' W 074°03'0 0.0
2017-Dec-07 12:00N 40°41' W 074°03'0 0.1
2017-Dec-07 11:30N 40°41' W 074°03'0 0.0
2017-Dec-07 11:00N 40°41' W 074°03'0 0.0
2017-Dec-07 10:30N 40°41' W 074°03'0 0.0
2017-Dec-07 10:00N 40°41' W 074°03'0 0.0
2017-Dec-07 09:30N 40°41' W 074°03'0 0.0
2017-Dec-07 09:00N 40°41' W 074°03'0 0.0
2017-Dec-07 08:30N 40°41' W 074°03'0 0.0
2017-Dec-07 08:00N 40°41' W 074°03'0 0.0
2017-Dec-07 07:30N 40°41' W 074°03'0 0.0
2017-Dec-07 07:00N 40°41' W 074°03'0 0.0
2017-Dec-07 06:30N 40°41' W 074°03'0 0.1
2017-Dec-07 06:00N 40°41' W 074°03'0 0.1
2017-Dec-07 05:30N 40°41' W 074°03'0 0.0
2017-Dec-07 05:00N 40°41' W 074°03'0 0.0
2017-Dec-07 04:30N 40°41' W 074°03'0 0.1
2017-Dec-07 04:00N 40°41' W 074°03'2 4.4
2017-Dec-07 03:30N 40°40' W 074°00'0 0.1
2017-Dec-07 03:00N 40°40' W 074°00'0 0.0
2017-Dec-07 02:30N 40°40' W 074°00'0 0.0
2017-Dec-07 02:00N 40°40' W 074°00'0 0.0
2017-Dec-07 01:30N 40°40' W 074°00'0 0.0
2017-Dec-07 01:00N 40°40' W 074°00'0 0.0
2017-Dec-07 00:30N 40°40' W 074°00'0 0.0
2017-Dec-07 00:00N 40°40' W 074°00'0 0.0
2017-Dec-06 23:30N 40°40' W 074°00'0 0.0
2017-Dec-06 23:00N 40°40' W 074°00'0 0.0
2017-Dec-06 22:30N 40°40' W 074°00'0 0.0
2017-Dec-06 22:00N 40°40' W 074°00'0 0.5
2017-Dec-06 21:30N 40°40' W 074°00'2 4.0
2017-Dec-06 21:00N 40°41' W 074°03'  
2017-Dec-04 10:30N 40°41' W 074°03'0 0.1
2017-Dec-04 10:00N 40°41' W 074°03'0 0.0
2017-Dec-04 09:30N 40°41' W 074°03'0 0.1
2017-Dec-04 09:00N 40°41' W 074°03'0 0.0
2017-Dec-04 08:30N 40°41' W 074°03'0 0.0
2017-Dec-04 08:00N 40°41' W 074°03'0 0.0
2017-Dec-04 07:30N 40°41' W 074°03'0 0.0
2017-Dec-04 07:00N 40°41' W 074°03'0 0.0
2017-Dec-04 06:30N 40°41' W 074°03'0 0.0
2017-Dec-04 06:00N 40°41' W 074°03'0 0.0
2017-Dec-04 05:30N 40°41' W 074°03'0 0.0
2017-Dec-04 05:00N 40°41' W 074°03'0 0.0
2017-Dec-04 04:30N 40°41' W 074°03'0 0.0
2017-Dec-04 04:00N 40°41' W 074°03'0 0.0
2017-Dec-04 03:30N 40°41' W 074°03'1 2.8
2017-Dec-04 03:00N 40°40' W 074°01'1 1.8
2017-Dec-04 02:30N 40°40' W 074°00'0 0.0
2017-Dec-04 02:00N 40°40' W 074°00'0 0.0
2017-Dec-04 01:30N 40°40' W 074°00'0 0.0
2017-Dec-04 01:00N 40°40' W 074°00'0 0.0
2017-Dec-04 00:30N 40°40' W 074°00'0 0.0
2017-Dec-04 00:00N 40°40' W 074°00'0 0.0
2017-Dec-03 23:30N 40°40' W 074°00'0 0.0
2017-Dec-03 23:00N 40°40' W 074°00'0 0.0
2017-Dec-03 22:30N 40°40' W 074°00'0 0.0
2017-Dec-03 22:00N 40°40' W 074°00'0 0.0
2017-Dec-03 21:30N 40°40' W 074°00'0 0.0
2017-Dec-03 21:00N 40°40' W 074°00'0 0.0
2017-Dec-03 20:30N 40°40' W 074°00'0 0.0
2017-Dec-03 20:00N 40°40' W 074°00'0 0.0
2017-Dec-03 19:30N 40°40' W 074°00'0 0.0
2017-Dec-03 19:00N 40°40' W 074°00'1 1.5
2017-Dec-03 18:31N 40°40' W 074°01'2 3.3
2017-Dec-03 18:00N 40°41' W 074°03'2 4.6
2017-Dec-03 17:30N 40°40' W 074°00'0 0.0
2017-Dec-03 17:00N 40°40' W 074°00'0 0.0
2017-Dec-03 16:30N 40°40' W 074°00'0 0.0
2017-Dec-03 16:00N 40°40' W 074°00'0 0.0
2017-Dec-03 15:30N 40°40' W 074°00'0 0.0
2017-Dec-03 15:00N 40°40' W 074°00'0 0.0
2017-Dec-03 14:30N 40°40' W 074°00'0 0.0
2017-Dec-03 14:00N 40°40' W 074°00'0 0.0
2017-Dec-03 13:30N 40°40' W 074°00'0 0.1
2017-Dec-03 13:01N 40°40' W 074°00'0 0.1
2017-Dec-03 12:30N 40°40' W 074°00'1 2.5
2017-Dec-03 12:00N 40°41' W 074°01'3 5.7
2017-Dec-03 11:30N 40°43' W 073°59'3 5.9
2017-Dec-03 11:00N 40°45' W 073°57'2 3.7
2017-Dec-03 10:29N 40°47' W 073°56'2 4.5
2017-Dec-03 10:00N 40°48' W 073°53'5 6.8
2017-Dec-03 09:19N 40°48' W 073°47'3 7.6
2017-Dec-03 08:58N 40°51' W 073°46'1 0.0
2017-Dec-02 08:17N 40°50' W 073°46'2 6.6
2017-Dec-02 07:58N 40°48' W 073°47'4 7.6
2017-Dec-02 07:28N 40°48' W 073°52'3 6.1
2017-Dec-02 06:59N 40°47' W 073°56'3 5.5
2017-Dec-02 06:30N 40°45' W 073°58'2 4.8
2017-Dec-02 06:00N 40°42' W 073°59'3 5.4
2017-Dec-02 05:30N 40°41' W 074°02'1 2.1
2017-Dec-02 05:00N 40°40' W 074°02'0 0.1
2017-Dec-02 04:30N 40°40' W 074°02'1 1.5
2017-Dec-02 04:00N 40°39' W 074°03'2 4.3
2017-Dec-02 03:30N 40°39' W 074°06'2 4.4
2017-Dec-02 03:00N 40°38' W 074°09'3 5.1
2017-Dec-02 02:30N 40°41' W 074°08'2 3.7
2017-Dec-02 01:59N 40°43' W 074°07'0 0.0
2017-Dec-02 01:29N 40°43' W 074°07'0 0.0
2017-Dec-02 00:58N 40°43' W 074°07'0 0.0
2017-Dec-02 00:30N 40°43' W 074°07'0 0.0
2017-Dec-02 00:00N 40°43' W 074°07'0 0.0
2017-Dec-01 23:29N 40°43' W 074°07'0 0.0
2017-Dec-01 23:00N 40°43' W 074°07'0 0.0
2017-Dec-01 22:30N 40°43' W 074°07'0 0.0
2017-Dec-01 22:00N 40°43' W 074°07'0 0.0
2017-Dec-01 21:28N 40°43' W 074°07'0 0.0
2017-Dec-01 20:59N 40°43' W 074°07'0 0.0
2017-Dec-01 20:29N 40°43' W 074°07'0 0.0
2017-Dec-01 20:00N 40°43' W 074°07'0 0.0
2017-Dec-01 19:30N 40°43' W 074°07'0 0.0
2017-Dec-01 19:00N 40°43' W 074°07'0 0.0
2017-Dec-01 18:29N 40°43' W 074°07'0 0.0
2017-Dec-01 18:00N 40°43' W 074°07'0 0.0
2017-Dec-01 17:30N 40°43' W 074°07'0 0.0
2017-Dec-01 17:00N 40°43' W 074°07'0 0.0
2017-Dec-01 16:30N 40°43' W 074°07'0 0.0
2017-Dec-01 16:00N 40°43' W 074°07'  

Dump ship's entire track history